SHMÚ vydal meteorologické výstrahy na Búrky Zobraziť výstrahy

METAR

Letisková meteorologická správa METAR

Meteorologické informácie z ďalších profesionálnych meteorologických staníc SHMÚ zobrazené v tvare zodpovedajúcom pravidlám kódovania správ METAR sú uvedené v položke „METSYN

Informácie o správe METAR

29.05.2016 - 13:00 UTC

METAR LZIB 291300Z 14013KT 9999 FEW047 27/16 Q1006 NOSIG=
METAR LZKZ 291300Z 15007KT CAVOK 27/13 Q1010 NOSIG=
METAR LZPP 291300Z 14013G25KT 110V170 9999 FEW045 27/14 Q1007=
METAR LZSL 291300Z 14007KT 080V180 9999 VCTS FEW040CB SCT047 BKN080
25/14 Q1010=
METAR LZTT 291300Z 18008KT 160V220 9999 FEW046TCU SCT053 23/11 Q1012
NOSIG=
METAR LZZI 291300Z 07007KT 9999 FEW045 SCT100 23/16 Q1009=

29.05.2016 - 12:30 UTC

METAR LZIB 291230Z 15012KT 9999 FEW044 27/15 Q1007 NOSIG=
METAR LZKZ 291230Z 15004KT 110V180 CAVOK 27/14 Q1011 NOSIG=
METAR LZPP 291230Z 14014G24KT 110V170 9999 FEW040 27/14 Q1007=
METAR LZSL 291230Z 16010KT 120V200 9999 FEW045 BKN080 26/15 Q1010=
METAR LZTT 291230Z 16006KT 130V200 9999 FEW046TCU SCT053 23/11 Q1012
NOSIG=
METAR LZZI 291230Z 07004KT 020V110 9999 FEW045 SCT090 23/17 Q1010=

29.05.2016 - 13:00 UTC

METAR LZMC 291300Z 14012G22KT CAVOK 27/13 Q1007=
METAR LZPW 291300Z 06008KT CAVOK 27/13 Q1011=

skok na menu ↑


skok na začiatok stránky ↑